sensor_id;sensor_type;location;lat;lon;timestamp;P1;durP1;ratioP1;P2;durP2;ratioP2
51292;SDS011;37377;45.186;9.778;2023-05-01T00:07:34;7.30;;;6.65;;
51292;SDS011;37377;45.186;9.778;2023-05-01T00:10:04;9.13;;;7.25;;
51292;SDS011;37377;45.186;9.778;2023-05-01T00:12:35;11.43;;;6.80;;
51292;SDS011;37377;45.186;9.778;2023-05-01T00:15:09;9.30;;;6.72;;
51292;SDS011;37377;45.186;9.778;2023-05-01T00:17:40;7.40;;;6.65;;
51292;SDS011;37377;45.186;9.778;2023-05-01T00:20:13;7.20;;;6.65;;
51292;SDS011;37377;45.186;9.778;2023-05-01T00:22:51;8.82;;;7.25;;
51292;SDS011;37377;45.186;9.778;2023-05-01T00:25:18;11.38;;;7.20;;
51292;SDS011;37377;45.186;9.778;2023-05-01T00:27:52;7.50;;;6.90;;
51292;SDS011;37377;45.186;9.778;2023-05-01T00:30:32;6.85;;;5.90;;
51292;SDS011;37377;45.186;9.778;2023-05-01T00:33:10;6.70;;;6.07;;
51292;SDS011;37377;45.186;9.778;2023-05-01T00:35:55;6.88;;;6.38;;
51292;SDS011;37377;45.186;9.778;2023-05-01T00:38:24;8.02;;;6.10;;
51292;SDS011;37377;45.186;9.778;2023-05-01T00:41:00;11.27;;;6.10;;
51292;SDS011;37377;45.186;9.778;2023-05-01T00:43:36;6.95;;;6.35;;
51292;SDS011;37377;45.186;9.778;2023-05-01T00:46:09;6.68;;;6.07;;
51292;SDS011;37377;45.186;9.778;2023-05-01T00:48:57;7.95;;;6.30;;
51292;SDS011;37377;45.186;9.778;2023-05-01T00:51:28;10.35;;;7.85;;
51292;SDS011;37377;45.186;9.778;2023-05-01T00:54:02;7.32;;;6.38;;
51292;SDS011;37377;45.186;9.778;2023-05-01T00:56:52;12.15;;;6.70;;
51292;SDS011;37377;45.186;9.778;2023-05-01T00:59:31;7.05;;;6.07;;
51292;SDS011;37377;45.186;9.778;2023-05-01T01:02:02;16.10;;;6.53;;
51292;SDS011;37377;45.186;9.778;2023-05-01T01:04:43;12.07;;;6.00;;
51292;SDS011;37377;45.186;9.778;2023-05-01T01:07:26;9.07;;;6.30;;
51292;SDS011;37377;45.186;9.778;2023-05-01T01:13:11;6.60;;;6.00;;
51292;SDS011;37377;45.186;9.778;2023-05-01T01:15:48;7.03;;;5.88;;
51292;SDS011;37377;45.186;9.778;2023-05-01T01:18:49;6.30;;;5.80;;
51292;SDS011;37377;45.186;9.778;2023-05-01T01:21:36;6.85;;;6.15;;
51292;SDS011;37377;45.186;9.778;2023-05-01T01:32:08;6.45;;;5.80;;
51292;SDS011;37377;45.186;9.778;2023-05-01T01:34:46;6.43;;;5.82;;
51292;SDS011;37377;45.186;9.778;2023-05-01T01:37:21;6.78;;;6.13;;
51292;SDS011;37377;45.186;9.778;2023-05-01T01:39:53;6.85;;;6.25;;
51292;SDS011;37377;45.186;9.778;2023-05-01T01:42:44;8.40;;;5.68;;
51292;SDS011;37377;45.186;9.778;2023-05-01T01:45:20;6.43;;;5.80;;
51292;SDS011;37377;45.186;9.778;2023-05-01T01:47:50;6.20;;;5.70;;
51292;SDS011;37377;45.186;9.778;2023-05-01T01:50:21;6.68;;;5.95;;
51292;SDS011;37377;45.186;9.778;2023-05-01T01:52:56;7.32;;;6.70;;
51292;SDS011;37377;45.186;9.778;2023-05-01T01:55:49;8.30;;;6.57;;
51292;SDS011;37377;45.186;9.778;2023-05-01T01:58:35;7.68;;;6.95;;
51292;SDS011;37377;45.186;9.778;2023-05-01T02:01:16;7.95;;;7.28;;
51292;SDS011;37377;45.186;9.778;2023-05-01T02:06:55;7.70;;;7.00;;
51292;SDS011;37377;45.186;9.778;2023-05-01T02:09:26;8.90;;;8.10;;
51292;SDS011;37377;45.186;9.778;2023-05-01T02:12:00;8.30;;;7.05;;
51292;SDS011;37377;45.186;9.778;2023-05-01T02:14:32;7.38;;;6.78;;
51292;SDS011;37377;45.186;9.778;2023-05-01T02:17:08;8.40;;;7.70;;
51292;SDS011;37377;45.186;9.778;2023-05-01T02:22:07;8.27;;;7.47;;
51292;SDS011;37377;45.186;9.778;2023-05-01T02:24:46;11.25;;;8.02;;
51292;SDS011;37377;45.186;9.778;2023-05-01T02:27:42;8.73;;;8.02;;
51292;SDS011;37377;45.186;9.778;2023-05-01T02:30:16;9.00;;;8.13;;
51292;SDS011;37377;45.186;9.778;2023-05-01T02:32:44;8.52;;;7.60;;
51292;SDS011;37377;45.186;9.778;2023-05-01T02:35:41;8.68;;;7.80;;
51292;SDS011;37377;45.186;9.778;2023-05-01T02:38:35;10.85;;;8.25;;
51292;SDS011;37377;45.186;9.778;2023-05-01T02:41:13;8.23;;;7.55;;
51292;SDS011;37377;45.186;9.778;2023-05-01T02:43:41;12.93;;;7.85;;
51292;SDS011;37377;45.186;9.778;2023-05-01T02:46:15;8.25;;;7.20;;
51292;SDS011;37377;45.186;9.778;2023-05-01T02:48:47;7.40;;;6.82;;
51292;SDS011;37377;45.186;9.778;2023-05-01T02:51:17;7.55;;;6.78;;
51292;SDS011;37377;45.186;9.778;2023-05-01T02:54:06;6.32;;;5.72;;
51292;SDS011;37377;45.186;9.778;2023-05-01T02:56:41;7.07;;;5.30;;
51292;SDS011;37377;45.186;9.778;2023-05-01T02:59:17;6.60;;;5.37;;
51292;SDS011;37377;45.186;9.778;2023-05-01T03:01:47;7.78;;;5.57;;
51292;SDS011;37377;45.186;9.778;2023-05-01T03:04:17;8.70;;;5.68;;
51292;SDS011;37377;45.186;9.778;2023-05-01T03:06:50;7.25;;;5.50;;
51292;SDS011;37377;45.186;9.778;2023-05-01T03:09:32;5.68;;;5.18;;
51292;SDS011;37377;45.186;9.778;2023-05-01T03:12:08;8.77;;;5.35;;
51292;SDS011;37377;45.186;9.778;2023-05-01T03:14:42;10.25;;;5.88;;
51292;SDS011;37377;45.186;9.778;2023-05-01T03:17:21;6.28;;;5.78;;
51292;SDS011;37377;45.186;9.778;2023-05-01T03:19:53;6.75;;;6.15;;
51292;SDS011;37377;45.186;9.778;2023-05-01T03:25:00;6.32;;;5.68;;
51292;SDS011;37377;45.186;9.778;2023-05-01T03:27:31;6.22;;;5.63;;
51292;SDS011;37377;45.186;9.778;2023-05-01T03:30:04;6.78;;;6.20;;
51292;SDS011;37377;45.186;9.778;2023-05-01T03:32:36;7.90;;;6.03;;
51292;SDS011;37377;45.186;9.778;2023-05-01T03:35:15;6.75;;;6.15;;
51292;SDS011;37377;45.186;9.778;2023-05-01T03:37:51;7.55;;;5.63;;
51292;SDS011;37377;45.186;9.778;2023-05-01T03:40:45;7.25;;;5.80;;
51292;SDS011;37377;45.186;9.778;2023-05-01T03:43:51;6.13;;;5.55;;
51292;SDS011;37377;45.186;9.778;2023-05-01T03:46:37;5.88;;;5.38;;
51292;SDS011;37377;45.186;9.778;2023-05-01T03:49:19;8.10;;;5.72;;
51292;SDS011;37377;45.186;9.778;2023-05-01T03:51:51;7.75;;;5.68;;
51292;SDS011;37377;45.186;9.778;2023-05-01T03:54:28;8.20;;;5.85;;
51292;SDS011;37377;45.186;9.778;2023-05-01T03:57:30;7.55;;;6.30;;
51292;SDS011;37377;45.186;9.778;2023-05-01T04:00:05;7.97;;;5.97;;
51292;SDS011;37377;45.186;9.778;2023-05-01T04:02:52;6.95;;;6.05;;
51292;SDS011;37377;45.186;9.778;2023-05-01T04:05:28;6.78;;;6.28;;
51292;SDS011;37377;45.186;9.778;2023-05-01T04:08:03;7.97;;;6.80;;
51292;SDS011;37377;45.186;9.778;2023-05-01T04:10:38;7.15;;;6.55;;
51292;SDS011;37377;45.186;9.778;2023-05-01T04:13:20;7.72;;;6.32;;
51292;SDS011;37377;45.186;9.778;2023-05-01T04:15:50;10.98;;;6.32;;
51292;SDS011;37377;45.186;9.778;2023-05-01T04:21:41;6.95;;;6.25;;
51292;SDS011;37377;45.186;9.778;2023-05-01T04:26:44;6.93;;;6.40;;
51292;SDS011;37377;45.186;9.778;2023-05-01T04:29:16;7.93;;;6.28;;
51292;SDS011;37377;45.186;9.778;2023-05-01T04:31:56;6.70;;;5.97;;
51292;SDS011;37377;45.186;9.778;2023-05-01T04:34:39;7.03;;;6.40;;
51292;SDS011;37377;45.186;9.778;2023-05-01T04:37:15;8.88;;;6.10;;
51292;SDS011;37377;45.186;9.778;2023-05-01T04:39:49;6.75;;;6.18;;
51292;SDS011;37377;45.186;9.778;2023-05-01T04:42:19;11.00;;;6.28;;
51292;SDS011;37377;45.186;9.778;2023-05-01T04:44:56;8.55;;;6.35;;
51292;SDS011;37377;45.186;9.778;2023-05-01T04:47:23;6.93;;;6.35;;
51292;SDS011;37377;45.186;9.778;2023-05-01T04:52:27;6.93;;;6.15;;
51292;SDS011;37377;45.186;9.778;2023-05-01T04:55:07;6.70;;;5.80;;
51292;SDS011;37377;45.186;9.778;2023-05-01T04:57:59;7.10;;;6.13;;
51292;SDS011;37377;45.186;9.778;2023-05-01T05:00:34;6.38;;;5.78;;
51292;SDS011;37377;45.186;9.778;2023-05-01T05:03:07;7.15;;;6.45;;
51292;SDS011;37377;45.186;9.778;2023-05-01T05:05:43;6.82;;;6.22;;
51292;SDS011;37377;45.186;9.778;2023-05-01T05:08:28;8.85;;;6.03;;
51292;SDS011;37377;45.186;9.778;2023-05-01T05:11:20;6.55;;;5.90;;
51292;SDS011;37377;45.186;9.778;2023-05-01T05:14:01;8.77;;;5.88;;
51292;SDS011;37377;45.186;9.778;2023-05-01T05:16:37;9.05;;;6.35;;
51292;SDS011;37377;45.186;9.778;2023-05-01T05:19:27;5.95;;;5.45;;
51292;SDS011;37377;45.186;9.778;2023-05-01T05:21:57;6.88;;;6.18;;
51292;SDS011;37377;45.186;9.778;2023-05-01T05:24:29;7.00;;;5.90;;
51292;SDS011;37377;45.186;9.778;2023-05-01T05:27:07;6.28;;;5.78;;
51292;SDS011;37377;45.186;9.778;2023-05-01T05:29:37;14.70;;;5.95;;
51292;SDS011;37377;45.186;9.778;2023-05-01T05:32:04;6.50;;;5.90;;
51292;SDS011;37377;45.186;9.778;2023-05-01T05:34:37;9.52;;;6.18;;
51292;SDS011;37377;45.186;9.778;2023-05-01T05:37:24;7.22;;;5.72;;
51292;SDS011;37377;45.186;9.778;2023-05-01T05:39:57;6.07;;;5.47;;
51292;SDS011;37377;45.186;9.778;2023-05-01T05:42:39;9.40;;;5.78;;
51292;SDS011;37377;45.186;9.778;2023-05-01T05:45:11;6.78;;;6.18;;
51292;SDS011;37377;45.186;9.778;2023-05-01T05:47:42;6.65;;;5.97;;
51292;SDS011;37377;45.186;9.778;2023-05-01T05:50:22;6.00;;;5.45;;
51292;SDS011;37377;45.186;9.778;2023-05-01T05:52:57;5.80;;;5.30;;
51292;SDS011;37377;45.186;9.778;2023-05-01T05:55:27;7.00;;;5.28;;
51292;SDS011;37377;45.186;9.778;2023-05-01T05:58:07;5.63;;;5.13;;
51292;SDS011;37377;45.186;9.778;2023-05-01T06:00:39;7.32;;;5.47;;
51292;SDS011;37377;45.186;9.778;2023-05-01T06:03:24;6.07;;;5.28;;
51292;SDS011;37377;45.186;9.778;2023-05-01T06:06:14;6.57;;;5.47;;
51292;SDS011;37377;45.186;9.778;2023-05-01T06:08:44;6.90;;;5.78;;
51292;SDS011;37377;45.186;9.778;2023-05-01T06:11:18;5.93;;;5.38;;
51292;SDS011;37377;45.186;9.778;2023-05-01T06:13:50;6.45;;;5.88;;
51292;SDS011;37377;45.186;9.778;2023-05-01T06:16:29;6.38;;;5.05;;
51292;SDS011;37377;45.186;9.778;2023-05-01T06:19:02;6.05;;;5.43;;
51292;SDS011;37377;45.186;9.778;2023-05-01T06:22:03;5.93;;;5.40;;
51292;SDS011;37377;45.186;9.778;2023-05-01T06:24:50;10.15;;;5.50;;
51292;SDS011;37377;45.186;9.778;2023-05-01T06:27:20;6.10;;;5.28;;
51292;SDS011;37377;45.186;9.778;2023-05-01T06:29:55;5.80;;;5.30;;
51292;SDS011;37377;45.186;9.778;2023-05-01T06:32:30;5.95;;;5.35;;
51292;SDS011;37377;45.186;9.778;2023-05-01T06:35:15;6.88;;;5.68;;
51292;SDS011;37377;45.186;9.778;2023-05-01T06:38:00;10.23;;;5.85;;
51292;SDS011;37377;45.186;9.778;2023-05-01T06:40:35;6.22;;;5.63;;
51292;SDS011;37377;45.186;9.778;2023-05-01T06:43:06;5.85;;;5.20;;
51292;SDS011;37377;45.186;9.778;2023-05-01T06:45:34;7.47;;;4.75;;
51292;SDS011;37377;45.186;9.778;2023-05-01T06:48:14;5.72;;;5.07;;
51292;SDS011;37377;45.186;9.778;2023-05-01T06:50:47;6.07;;;5.15;;
51292;SDS011;37377;45.186;9.778;2023-05-01T06:53:20;7.20;;;4.93;;
51292;SDS011;37377;45.186;9.778;2023-05-01T06:55:50;10.35;;;4.70;;
51292;SDS011;37377;45.186;9.778;2023-05-01T06:58:27;7.07;;;4.63;;
51292;SDS011;37377;45.186;9.778;2023-05-01T07:01:07;7.30;;;5.03;;
51292;SDS011;37377;45.186;9.778;2023-05-01T07:03:43;7.25;;;4.93;;
51292;SDS011;37377;45.186;9.778;2023-05-01T07:06:23;8.10;;;4.55;;
51292;SDS011;37377;45.186;9.778;2023-05-01T07:08:53;5.07;;;4.22;;
51292;SDS011;37377;45.186;9.778;2023-05-01T07:11:37;4.82;;;4.30;;
51292;SDS011;37377;45.186;9.778;2023-05-01T07:14:18;9.20;;;4.40;;
51292;SDS011;37377;45.186;9.778;2023-05-01T07:16:51;4.85;;;4.30;;
51292;SDS011;37377;45.186;9.778;2023-05-01T07:19:23;4.68;;;4.22;;
51292;SDS011;37377;45.186;9.778;2023-05-01T07:22:01;6.35;;;4.15;;
51292;SDS011;37377;45.186;9.778;2023-05-01T07:24:32;6.22;;;4.20;;
51292;SDS011;37377;45.186;9.778;2023-05-01T07:27:08;5.85;;;3.78;;
51292;SDS011;37377;45.186;9.778;2023-05-01T07:29:39;7.68;;;3.92;;
51292;SDS011;37377;45.186;9.778;2023-05-01T07:32:08;5.90;;;4.28;;
51292;SDS011;37377;45.186;9.778;2023-05-01T07:34:57;8.75;;;3.70;;
51292;SDS011;37377;45.186;9.778;2023-05-01T07:37:30;8.45;;;3.90;;
51292;SDS011;37377;45.186;9.778;2023-05-01T07:39:58;7.78;;;3.70;;
51292;SDS011;37377;45.186;9.778;2023-05-01T07:42:31;12.23;;;3.90;;
51292;SDS011;37377;45.186;9.778;2023-05-01T07:45:06;5.82;;;3.90;;
51292;SDS011;37377;45.186;9.778;2023-05-01T07:47:40;6.55;;;4.10;;
51292;SDS011;37377;45.186;9.778;2023-05-01T07:50:14;7.18;;;3.65;;
51292;SDS011;37377;45.186;9.778;2023-05-01T07:52:44;4.78;;;3.78;;
51292;SDS011;37377;45.186;9.778;2023-05-01T07:55:30;4.22;;;3.80;;
51292;SDS011;37377;45.186;9.778;2023-05-01T07:58:09;7.78;;;3.83;;
51292;SDS011;37377;45.186;9.778;2023-05-01T08:00:36;7.25;;;3.40;;
51292;SDS011;37377;45.186;9.778;2023-05-01T08:03:07;8.77;;;3.90;;
51292;SDS011;37377;45.186;9.778;2023-05-01T08:05:41;8.85;;;4.47;;
51292;SDS011;37377;45.186;9.778;2023-05-01T08:08:12;11.73;;;3.97;;
51292;SDS011;37377;45.186;9.778;2023-05-01T08:10:47;5.65;;;3.83;;
51292;SDS011;37377;45.186;9.778;2023-05-01T08:13:21;9.82;;;3.92;;
51292;SDS011;37377;45.186;9.778;2023-05-01T08:15:54;7.72;;;3.63;;
51292;SDS011;37377;45.186;9.778;2023-05-01T08:18:28;8.70;;;3.47;;
51292;SDS011;37377;45.186;9.778;2023-05-01T08:20:58;6.30;;;3.90;;
51292;SDS011;37377;45.186;9.778;2023-05-01T08:24:07;13.27;;;3.72;;
51292;SDS011;37377;45.186;9.778;2023-05-01T08:26:41;5.63;;;3.40;;
51292;SDS011;37377;45.186;9.778;2023-05-01T08:29:19;8.02;;;3.67;;
51292;SDS011;37377;45.186;9.778;2023-05-01T08:31:46;7.03;;;3.70;;
51292;SDS011;37377;45.186;9.778;2023-05-01T08:34:42;6.88;;;3.22;;
51292;SDS011;37377;45.186;9.778;2023-05-01T08:38:31;5.78;;;3.65;;
51292;SDS011;37377;45.186;9.778;2023-05-01T08:41:33;7.03;;;3.45;;
51292;SDS011;37377;45.186;9.778;2023-05-01T08:44:01;4.35;;;3.10;;
51292;SDS011;37377;45.186;9.778;2023-05-01T08:46:47;4.32;;;3.50;;
51292;SDS011;37377;45.186;9.778;2023-05-01T08:49:19;5.40;;;3.85;;
51292;SDS011;37377;45.186;9.778;2023-05-01T08:51:52;5.18;;;3.35;;
51292;SDS011;37377;45.186;9.778;2023-05-01T08:54:35;11.40;;;3.40;;
51292;SDS011;37377;45.186;9.778;2023-05-01T08:57:11;12.48;;;3.70;;
51292;SDS011;37377;45.186;9.778;2023-05-01T08:59:45;5.78;;;3.55;;
51292;SDS011;37377;45.186;9.778;2023-05-01T09:02:20;4.25;;;3.50;;
51292;SDS011;37377;45.186;9.778;2023-05-01T09:04:53;6.97;;;3.30;;
51292;SDS011;37377;45.186;9.778;2023-05-01T09:07:31;3.80;;;3.40;;
51292;SDS011;37377;45.186;9.778;2023-05-01T09:10:07;4.38;;;3.50;;
51292;SDS011;37377;45.186;9.778;2023-05-01T09:13:00;4.10;;;3.65;;
51292;SDS011;37377;45.186;9.778;2023-05-01T09:15:29;9.80;;;3.78;;
51292;SDS011;37377;45.186;9.778;2023-05-01T09:18:01;5.53;;;3.85;;
51292;SDS011;37377;45.186;9.778;2023-05-01T09:20:35;6.35;;;3.95;;
51292;SDS011;37377;45.186;9.778;2023-05-01T09:23:13;4.60;;;4.20;;
51292;SDS011;37377;45.186;9.778;2023-05-01T09:25:48;4.75;;;4.05;;
51292;SDS011;37377;45.186;9.778;2023-05-01T09:28:41;6.47;;;4.45;;
51292;SDS011;37377;45.186;9.778;2023-05-01T09:31:25;6.82;;;4.65;;
51292;SDS011;37377;45.186;9.778;2023-05-01T09:34:13;6.75;;;5.13;;
51292;SDS011;37377;45.186;9.778;2023-05-01T09:36:46;6.70;;;5.38;;
51292;SDS011;37377;45.186;9.778;2023-05-01T09:40:28;5.30;;;4.53;;
51292;SDS011;37377;45.186;9.778;2023-05-01T09:46:39;8.63;;;5.50;;
51292;SDS011;37377;45.186;9.778;2023-05-01T09:49:07;6.43;;;4.88;;
51292;SDS011;37377;45.186;9.778;2023-05-01T09:51:40;5.80;;;5.20;;
51292;SDS011;37377;45.186;9.778;2023-05-01T09:54:17;5.60;;;5.00;;
51292;SDS011;37377;45.186;9.778;2023-05-01T09:56:49;7.78;;;4.97;;
51292;SDS011;37377;45.186;9.778;2023-05-01T09:59:19;7.15;;;4.50;;
51292;SDS011;37377;45.186;9.778;2023-05-01T10:01:58;5.18;;;4.22;;
51292;SDS011;37377;45.186;9.778;2023-05-01T10:04:46;8.27;;;4.60;;
51292;SDS011;37377;45.186;9.778;2023-05-01T10:07:25;5.30;;;4.28;;
51292;SDS011;37377;45.186;9.778;2023-05-01T10:10:21;9.98;;;4.70;;
51292;SDS011;37377;45.186;9.778;2023-05-01T10:13:16;10.57;;;4.63;;
51292;SDS011;37377;45.186;9.778;2023-05-01T10:17:42;5.85;;;4.55;;
51292;SDS011;37377;45.186;9.778;2023-05-01T10:32:46;5.30;;;3.90;;
51292;SDS011;37377;45.186;9.778;2023-05-01T10:35:42;7.55;;;3.83;;
51292;SDS011;37377;45.186;9.778;2023-05-01T10:38:21;4.75;;;4.07;;
51292;SDS011;37377;45.186;9.778;2023-05-01T10:41:06;4.00;;;3.60;;
51292;SDS011;37377;45.186;9.778;2023-05-01T10:43:35;8.52;;;4.20;;
51292;SDS011;37377;45.186;9.778;2023-05-01T10:51:18;8.88;;;3.55;;
51292;SDS011;37377;45.186;9.778;2023-05-01T10:54:41;4.47;;;3.10;;
51292;SDS011;37377;45.186;9.778;2023-05-01T11:02:33;9.77;;;3.70;;
51292;SDS011;37377;45.186;9.778;2023-05-01T11:10:46;8.40;;;3.30;;
51292;SDS011;37377;45.186;9.778;2023-05-01T11:13:19;5.90;;;3.50;;
51292;SDS011;37377;45.186;9.778;2023-05-01T11:16:51;5.20;;;3.03;;
51292;SDS011;37377;45.186;9.778;2023-05-01T11:19:01;5.70;;;3.30;;
51292;SDS011;37377;45.186;9.778;2023-05-01T11:21:44;5.43;;;3.63;;
51292;SDS011;37377;45.186;9.778;2023-05-01T11:24:18;4.03;;;3.30;;
51292;SDS011;37377;45.186;9.778;2023-05-01T11:27:07;4.82;;;3.60;;
51292;SDS011;37377;45.186;9.778;2023-05-01T11:30:14;5.63;;;3.15;;
51292;SDS011;37377;45.186;9.778;2023-05-01T11:33:05;5.38;;;3.40;;
51292;SDS011;37377;45.186;9.778;2023-05-01T11:35:40;3.78;;;3.25;;
51292;SDS011;37377;45.186;9.778;2023-05-01T11:38:16;3.92;;;3.17;;
51292;SDS011;37377;45.186;9.778;2023-05-01T11:40:56;7.75;;;3.42;;
51292;SDS011;37377;45.186;9.778;2023-05-01T11:43:29;4.95;;;3.05;;
51292;SDS011;37377;45.186;9.778;2023-05-01T11:46:08;5.68;;;2.83;;
51292;SDS011;37377;45.186;9.778;2023-05-01T11:48:36;3.67;;;2.70;;
51292;SDS011;37377;45.186;9.778;2023-05-01T11:51:26;5.32;;;2.72;;
51292;SDS011;37377;45.186;9.778;2023-05-01T11:56:32;4.10;;;2.58;;
51292;SDS011;37377;45.186;9.778;2023-05-01T11:59:28;4.63;;;2.50;;
51292;SDS011;37377;45.186;9.778;2023-05-01T12:01:57;5.07;;;2.60;;
51292;SDS011;37377;45.186;9.778;2023-05-01T12:04:49;3.40;;;2.50;;
51292;SDS011;37377;45.186;9.778;2023-05-01T12:07:24;7.93;;;3.08;;
51292;SDS011;37377;45.186;9.778;2023-05-01T12:09:56;5.50;;;2.92;;
51292;SDS011;37377;45.186;9.778;2023-05-01T12:12:28;9.45;;;2.95;;
51292;SDS011;37377;45.186;9.778;2023-05-01T12:15:02;3.92;;;2.60;;
51292;SDS011;37377;45.186;9.778;2023-05-01T12:17:30;4.38;;;3.00;;
51292;SDS011;37377;45.186;9.778;2023-05-01T12:20:04;6.13;;;2.92;;
51292;SDS011;37377;45.186;9.778;2023-05-01T12:23:02;3.80;;;2.90;;
51292;SDS011;37377;45.186;9.778;2023-05-01T12:25:54;4.32;;;3.10;;
51292;SDS011;37377;45.186;9.778;2023-05-01T12:28:24;6.13;;;2.95;;
51292;SDS011;37377;45.186;9.778;2023-05-01T12:31:01;4.38;;;3.20;;
51292;SDS011;37377;45.186;9.778;2023-05-01T12:33:32;6.90;;;3.50;;
51292;SDS011;37377;45.186;9.778;2023-05-01T12:36:11;9.20;;;3.85;;
51292;SDS011;37377;45.186;9.778;2023-05-01T12:41:50;4.50;;;4.10;;
51292;SDS011;37377;45.186;9.778;2023-05-01T12:44:32;5.00;;;4.00;;
51292;SDS011;37377;45.186;9.778;2023-05-01T12:47:00;7.90;;;3.83;;
51292;SDS011;37377;45.186;9.778;2023-05-01T12:49:36;6.55;;;3.85;;
51292;SDS011;37377;45.186;9.778;2023-05-01T12:52:09;7.25;;;4.40;;
51292;SDS011;37377;45.186;9.778;2023-05-01T12:54:43;6.13;;;4.40;;
51292;SDS011;37377;45.186;9.778;2023-05-01T12:57:20;10.50;;;4.60;;
51292;SDS011;37377;45.186;9.778;2023-05-01T13:02:16;8.95;;;4.85;;
51292;SDS011;37377;45.186;9.778;2023-05-01T13:07:45;5.18;;;4.72;;
51292;SDS011;37377;45.186;9.778;2023-05-01T13:17:10;6.07;;;5.13;;
51292;SDS011;37377;45.186;9.778;2023-05-01T13:19:51;6.30;;;5.35;;
51292;SDS011;37377;45.186;9.778;2023-05-01T13:23:38;7.95;;;5.55;;
51292;SDS011;37377;45.186;9.778;2023-05-01T13:41:15;11.98;;;5.75;;
51292;SDS011;37377;45.186;9.778;2023-05-01T13:49:53;15.98;;;6.65;;
51292;SDS011;37377;45.186;9.778;2023-05-01T14:08:08;12.68;;;6.70;;
51292;SDS011;37377;45.186;9.778;2023-05-01T14:11:58;15.50;;;7.60;;
51292;SDS011;37377;45.186;9.778;2023-05-01T14:20:24;7.63;;;6.65;;
51292;SDS011;37377;45.186;9.778;2023-05-01T14:24:16;10.40;;;6.60;;
51292;SDS011;37377;45.186;9.778;2023-05-01T14:37:04;8.50;;;7.18;;
51292;SDS011;37377;45.186;9.778;2023-05-01T14:40:45;12.77;;;7.75;;
51292;SDS011;37377;45.186;9.778;2023-05-01T14:48:55;11.50;;;7.90;;
51292;SDS011;37377;45.186;9.778;2023-05-01T14:52:58;8.73;;;6.80;;
51292;SDS011;37377;45.186;9.778;2023-05-01T14:56:41;14.60;;;7.90;;
51292;SDS011;37377;45.186;9.778;2023-05-01T14:59:21;15.65;;;8.00;;
51292;SDS011;37377;45.186;9.778;2023-05-01T15:01:56;19.25;;;17.25;;
51292;SDS011;37377;45.186;9.778;2023-05-01T15:04:26;16.52;;;7.70;;
51292;SDS011;37377;45.186;9.778;2023-05-01T15:07:02;12.00;;;7.75;;
51292;SDS011;37377;45.186;9.778;2023-05-01T15:09:39;12.68;;;7.75;;
51292;SDS011;37377;45.186;9.778;2023-05-01T15:12:09;10.93;;;7.68;;
51292;SDS011;37377;45.186;9.778;2023-05-01T15:14:45;8.05;;;7.25;;
51292;SDS011;37377;45.186;9.778;2023-05-01T15:17:29;12.90;;;8.77;;
51292;SDS011;37377;45.186;9.778;2023-05-01T15:20:31;8.93;;;8.07;;
51292;SDS011;37377;45.186;9.778;2023-05-01T15:23:16;12.75;;;8.25;;
51292;SDS011;37377;45.186;9.778;2023-05-01T15:26:03;8.70;;;7.90;;
51292;SDS011;37377;45.186;9.778;2023-05-01T15:28:36;15.38;;;9.73;;
51292;SDS011;37377;45.186;9.778;2023-05-01T15:31:21;12.00;;;9.07;;
51292;SDS011;37377;45.186;9.778;2023-05-01T15:33:54;17.55;;;10.85;;
51292;SDS011;37377;45.186;9.778;2023-05-01T15:36:34;14.05;;;9.52;;
51292;SDS011;37377;45.186;9.778;2023-05-01T15:39:15;13.37;;;9.87;;
51292;SDS011;37377;45.186;9.778;2023-05-01T15:52:34;12.27;;;9.95;;
51292;SDS011;37377;45.186;9.778;2023-05-01T16:00:56;18.88;;;9.85;;
51292;SDS011;37377;45.186;9.778;2023-05-01T16:05:18;10.48;;;9.20;;
51292;SDS011;37377;45.186;9.778;2023-05-01T16:08:44;15.30;;;9.88;;
51292;SDS011;37377;45.186;9.778;2023-05-01T16:11:12;11.57;;;10.55;;
51292;SDS011;37377;45.186;9.778;2023-05-01T16:13:48;16.60;;;9.82;;
51292;SDS011;37377;45.186;9.778;2023-05-01T16:16:35;12.48;;;9.57;;
51292;SDS011;37377;45.186;9.778;2023-05-01T16:19:07;13.13;;;11.50;;
51292;SDS011;37377;45.186;9.778;2023-05-01T16:21:46;20.88;;;11.25;;
51292;SDS011;37377;45.186;9.778;2023-05-01T16:24:21;13.88;;;10.13;;
51292;SDS011;37377;45.186;9.778;2023-05-01T16:26:52;19.65;;;11.13;;
51292;SDS011;37377;45.186;9.778;2023-05-01T16:30:33;13.65;;;11.23;;
51292;SDS011;37377;45.186;9.778;2023-05-01T16:34:52;11.57;;;10.45;;
51292;SDS011;37377;45.186;9.778;2023-05-01T16:43:04;13.65;;;10.23;;
51292;SDS011;37377;45.186;9.778;2023-05-01T16:45:38;13.27;;;11.35;;
51292;SDS011;37377;45.186;9.778;2023-05-01T16:48:08;20.10;;;11.27;;
51292;SDS011;37377;45.186;9.778;2023-05-01T16:50:54;12.38;;;11.38;;
51292;SDS011;37377;45.186;9.778;2023-05-01T16:53:33;26.67;;;22.80;;
51292;SDS011;37377;45.186;9.778;2023-05-01T16:56:05;24.90;;;18.65;;
51292;SDS011;37377;45.186;9.778;2023-05-01T16:58:39;15.70;;;12.20;;
51292;SDS011;37377;45.186;9.778;2023-05-01T17:04:54;14.48;;;13.07;;
51292;SDS011;37377;45.186;9.778;2023-05-01T17:07:24;13.65;;;12.35;;
51292;SDS011;37377;45.186;9.778;2023-05-01T17:09:54;16.27;;;14.68;;
51292;SDS011;37377;45.186;9.778;2023-05-01T17:12:24;13.88;;;12.52;;
51292;SDS011;37377;45.186;9.778;2023-05-01T17:14:59;12.88;;;11.88;;
51292;SDS011;37377;45.186;9.778;2023-05-01T17:17:30;15.43;;;12.90;;
51292;SDS011;37377;45.186;9.778;2023-05-01T17:20:11;17.40;;;15.60;;
51292;SDS011;37377;45.186;9.778;2023-05-01T17:22:43;18.48;;;16.48;;
51292;SDS011;37377;45.186;9.778;2023-05-01T17:25:16;17.20;;;14.82;;
51292;SDS011;37377;45.186;9.778;2023-05-01T17:27:48;14.75;;;13.20;;
51292;SDS011;37377;45.186;9.778;2023-05-01T17:30:16;13.65;;;12.25;;
51292;SDS011;37377;45.186;9.778;2023-05-01T17:32:47;17.50;;;12.68;;
51292;SDS011;37377;45.186;9.778;2023-05-01T17:35:19;13.25;;;11.70;;
51292;SDS011;37377;45.186;9.778;2023-05-01T17:37:51;15.00;;;11.95;;
51292;SDS011;37377;45.186;9.778;2023-05-01T17:40:23;12.82;;;11.50;;
51292;SDS011;37377;45.186;9.778;2023-05-01T17:42:54;14.15;;;12.75;;
51292;SDS011;37377;45.186;9.778;2023-05-01T17:45:21;15.85;;;12.90;;
51292;SDS011;37377;45.186;9.778;2023-05-01T17:47:51;15.95;;;14.38;;
51292;SDS011;37377;45.186;9.778;2023-05-01T17:50:23;17.05;;;15.13;;
51292;SDS011;37377;45.186;9.778;2023-05-01T17:53:05;15.27;;;13.10;;
51292;SDS011;37377;45.186;9.778;2023-05-01T17:55:39;15.13;;;13.50;;
51292;SDS011;37377;45.186;9.778;2023-05-01T17:58:10;15.77;;;13.93;;
51292;SDS011;37377;45.186;9.778;2023-05-01T18:00:39;13.57;;;12.38;;
51292;SDS011;37377;45.186;9.778;2023-05-01T18:03:20;16.10;;;13.23;;
51292;SDS011;37377;45.186;9.778;2023-05-01T18:05:54;15.55;;;14.05;;
51292;SDS011;37377;45.186;9.778;2023-05-01T18:08:24;16.13;;;14.63;;
51292;SDS011;37377;45.186;9.778;2023-05-01T18:10:54;16.15;;;14.38;;
51292;SDS011;37377;45.186;9.778;2023-05-01T18:13:24;21.08;;;15.60;;
51292;SDS011;37377;45.186;9.778;2023-05-01T18:16:00;16.35;;;13.45;;
51292;SDS011;37377;45.186;9.778;2023-05-01T18:18:32;18.02;;;15.32;;
51292;SDS011;37377;45.186;9.778;2023-05-01T18:21:07;21.23;;;15.32;;
51292;SDS011;37377;45.186;9.778;2023-05-01T18:23:41;18.35;;;15.60;;
51292;SDS011;37377;45.186;9.778;2023-05-01T18:26:12;18.00;;;15.88;;
51292;SDS011;37377;45.186;9.778;2023-05-01T18:28:48;20.85;;;16.15;;
51292;SDS011;37377;45.186;9.778;2023-05-01T18:31:25;16.70;;;15.00;;
51292;SDS011;37377;45.186;9.778;2023-05-01T18:34:06;18.38;;;15.25;;
51292;SDS011;37377;45.186;9.778;2023-05-01T18:36:41;19.02;;;17.13;;
51292;SDS011;37377;45.186;9.778;2023-05-01T18:41:50;20.70;;;15.32;;
51292;SDS011;37377;45.186;9.778;2023-05-01T18:44:21;16.92;;;15.18;;
51292;SDS011;37377;45.186;9.778;2023-05-01T18:46:54;17.58;;;15.82;;